Khudjand, Tajikistan

3:15 AM TJT on April 28, 2015 (GMT +0500)
Khudzhand | | Change Station
CLOSE
Current Station
Airport
Location: Khudzhand,
Elevation: 1450 ft
Nearby Weather Stations

Elev 1450 ft 40.22 °N, 69.69 °E | Updated 15 minutes ago

Clear
Clear
55 °F
Feels Like 55 °F
N
2
Wind Variable Wind from Variable

Today
High -- | Low -- °F
--% Chance of Precip.
Yesterday
High -- | Low -- °F
Precip. -- in
5:25 AM 7:12 PM
Waxing Gibbous, 68% visible
Pressure 30.21 in
Visibility 6.2 miles
Clouds Clear
Dew Point 46 °F
Humidity 72%
Rainfall 0.00 in
Snow Depth Not available.
UV 0 out of 12
Pollen Not available.
Air Quality Not available.
Flu Activity Not available.
METAR UTDL 272200Z VRB01MPS 9999 SKC 13/08 Q1023 NOSIG RMK QFE729/0972 88CLRD70

More Conditions Fewer Conditions

Pressure 30.21 in
Visibility 6.2 miles
Clouds Clear
Dew Point 46 °F
Humidity 72%
Rainfall 0.00 in
Snow Depth Not available.
UV 0 out of 12
Pollen Not available.
Air Quality Not available.
Flu Activity Not available.
METAR UTDL 272200Z VRB01MPS 9999 SKC 13/08 Q1023 NOSIG RMK QFE729/0972 88CLRD70

More Conditions Fewer Conditions

10-Day Weather Forecast

Almanac

Astronomy

Apr. 28, 2015 Rise Set
Actual Time
Civil Twilight
Nautical Twilight
Astronomical Twilight
Moon
Length of Visible Light
Length of Day
Tomorrow will be .
, % of the Moon is Illuminated

Today's Extremes

Country Highs Country Lows

Community

WunderPhotos

Upload Photos

1,817,442 photos uploaded!

WunderBlogs® & News

Nearby

Air Quality

  Air Quality AQ Index Pollutant
Not available.

Snow Depth

Station Depth Elevation

Earthquake Activity

City Distance Mag. Time & Date
Minimum magnitude displayed is 2.5.

Coastal Water Temperatures

Place Temperature

Stations

Nearby Weather Stations

Station Location Temp. Windchill Dew Point Humidity Wind Precip. Elev Updated Type